sensor_id;sensor_type;location;lat;lon;timestamp;pressure;altitude;pressure_sealevel;temperature;humidity
706;BME280;21234;48.690;9.016;2023-02-10T00:00:33;97886.38;;;-3.13;82.57
706;BME280;21234;48.690;9.016;2023-02-10T00:03:00;97876.06;;;-3.07;82.68
706;BME280;21234;48.690;9.016;2023-02-10T00:05:28;97871.50;;;-3.16;82.99
706;BME280;21234;48.690;9.016;2023-02-10T00:07:54;97873.06;;;-3.13;82.74
706;BME280;21234;48.690;9.016;2023-02-10T00:10:21;97876.53;;;-3.01;82.29
706;BME280;21234;48.690;9.016;2023-02-10T00:12:48;97884.19;;;-3.08;82.52
706;BME280;21234;48.690;9.016;2023-02-10T00:15:15;97881.59;;;-2.98;82.71
706;BME280;21234;48.690;9.016;2023-02-10T00:17:41;97883.56;;;-3.00;83.42
706;BME280;21234;48.690;9.016;2023-02-10T00:20:09;97872.56;;;-3.07;83.01
706;BME280;21234;48.690;9.016;2023-02-10T00:22:37;97877.25;;;-2.99;82.21
706;BME280;21234;48.690;9.016;2023-02-10T00:25:04;97870.28;;;-3.12;82.29
706;BME280;21234;48.690;9.016;2023-02-10T00:27:31;97869.94;;;-3.18;82.90
706;BME280;21234;48.690;9.016;2023-02-10T00:29:58;97874.78;;;-3.23;83.32
706;BME280;21234;48.690;9.016;2023-02-10T00:32:25;97869.63;;;-3.36;83.29
706;BME280;21234;48.690;9.016;2023-02-10T00:34:52;97865.09;;;-3.24;83.36
706;BME280;21234;48.690;9.016;2023-02-10T00:37:18;97868.97;;;-3.17;83.83
706;BME280;21234;48.690;9.016;2023-02-10T00:39:46;97875.63;;;-3.23;82.66
706;BME280;21234;48.690;9.016;2023-02-10T00:42:13;97883.78;;;-3.35;82.52
706;BME280;21234;48.690;9.016;2023-02-10T00:44:40;97888.50;;;-3.50;82.96
706;BME280;21234;48.690;9.016;2023-02-10T00:47:06;97884.38;;;-3.43;83.35
706;BME280;21234;48.690;9.016;2023-02-10T00:49:33;97892.38;;;-3.43;83.32
706;BME280;21234;48.690;9.016;2023-02-10T00:52:00;97897.22;;;-3.48;83.17
706;BME280;21234;48.690;9.016;2023-02-10T00:54:26;97896.84;;;-3.44;82.75
706;BME280;21234;48.690;9.016;2023-02-10T00:56:54;97889.84;;;-3.56;83.45
706;BME280;21234;48.690;9.016;2023-02-10T00:59:21;97896.81;;;-3.32;83.52
706;BME280;21234;48.690;9.016;2023-02-10T01:01:48;97896.00;;;-3.44;82.83
706;BME280;21234;48.690;9.016;2023-02-10T01:04:14;97899.88;;;-3.48;83.31
706;BME280;21234;48.690;9.016;2023-02-10T01:06:41;97899.13;;;-3.50;83.88
706;BME280;21234;48.690;9.016;2023-02-10T01:09:08;97899.50;;;-3.55;84.08
706;BME280;21234;48.690;9.016;2023-02-10T01:11:35;97894.72;;;-3.61;83.58
706;BME280;21234;48.690;9.016;2023-02-10T01:14:03;97902.81;;;-3.74;84.62
706;BME280;21234;48.690;9.016;2023-02-10T01:16:30;97907.13;;;-3.84;84.11
706;BME280;21234;48.690;9.016;2023-02-10T01:18:58;97902.47;;;-3.91;85.04
706;BME280;21234;48.690;9.016;2023-02-10T01:21:25;97909.22;;;-3.65;84.48
706;BME280;21234;48.690;9.016;2023-02-10T01:23:52;97912.22;;;-3.58;83.90
706;BME280;21234;48.690;9.016;2023-02-10T01:26:18;97905.44;;;-3.51;83.47
706;BME280;21234;48.690;9.016;2023-02-10T01:28:45;97909.22;;;-3.65;83.70
706;BME280;21234;48.690;9.016;2023-02-10T01:31:15;97908.47;;;-3.78;83.90
706;BME280;21234;48.690;9.016;2023-02-10T01:33:42;97908.59;;;-3.80;84.33
706;BME280;21234;48.690;9.016;2023-02-10T01:36:11;97909.94;;;-3.63;84.83
706;BME280;21234;48.690;9.016;2023-02-10T01:38:38;97910.06;;;-3.64;84.45
706;BME280;21234;48.690;9.016;2023-02-10T01:41:06;97908.09;;;-3.85;85.38
706;BME280;21234;48.690;9.016;2023-02-10T01:43:51;97899.91;;;-3.93;85.49
706;BME280;21234;48.690;9.016;2023-02-10T01:46:20;97901.72;;;-3.93;85.37
706;BME280;21234;48.690;9.016;2023-02-10T01:48:47;97902.22;;;-3.99;85.21
706;BME280;21234;48.690;9.016;2023-02-10T01:51:15;97908.00;;;-3.94;84.72
706;BME280;21234;48.690;9.016;2023-02-10T01:53:43;97903.31;;;-3.91;85.03
706;BME280;21234;48.690;9.016;2023-02-10T01:56:13;97903.88;;;-3.87;84.95
706;BME280;21234;48.690;9.016;2023-02-10T01:58:42;97905.34;;;-3.72;84.58
706;BME280;21234;48.690;9.016;2023-02-10T02:01:09;97903.75;;;-3.86;84.80
706;BME280;21234;48.690;9.016;2023-02-10T02:03:38;97907.38;;;-3.87;84.96
706;BME280;21234;48.690;9.016;2023-02-10T02:06:06;97906.53;;;-3.87;84.02
706;BME280;21234;48.690;9.016;2023-02-10T02:08:33;97912.81;;;-3.88;83.98
706;BME280;21234;48.690;9.016;2023-02-10T02:11:07;97916.44;;;-4.12;83.41
706;BME280;21234;48.690;9.016;2023-02-10T02:13:59;97920.91;;;-4.23;83.59
706;BME280;21234;48.690;9.016;2023-02-10T02:16:41;97919.09;;;-4.23;83.93
706;BME280;21234;48.690;9.016;2023-02-10T02:19:30;97927.19;;;-4.13;83.36
706;BME280;21234;48.690;9.016;2023-02-10T02:22:34;97933.22;;;-4.22;84.27
706;BME280;21234;48.690;9.016;2023-02-10T02:25:18;97944.31;;;-4.28;84.72
706;BME280;21234;48.690;9.016;2023-02-10T02:27:54;97939.00;;;-4.28;84.57
706;BME280;21234;48.690;9.016;2023-02-10T02:30:45;97928.97;;;-4.36;85.31
706;BME280;21234;48.690;9.016;2023-02-10T02:33:19;97931.88;;;-4.28;85.26
706;BME280;21234;48.690;9.016;2023-02-10T02:35:52;97927.31;;;-4.03;84.97
706;BME280;21234;48.690;9.016;2023-02-10T02:38:20;97925.13;;;-4.10;84.70
706;BME280;21234;48.690;9.016;2023-02-10T02:40:47;97932.38;;;-4.12;84.35
706;BME280;21234;48.690;9.016;2023-02-10T02:43:13;97932.38;;;-4.12;85.02
706;BME280;21234;48.690;9.016;2023-02-10T02:45:46;97933.09;;;-4.10;84.51
706;BME280;21234;48.690;9.016;2023-02-10T02:48:30;97935.38;;;-4.16;84.81
706;BME280;21234;48.690;9.016;2023-02-10T02:51:04;97934.28;;;-4.14;84.64
706;BME280;21234;48.690;9.016;2023-02-10T02:53:38;97941.66;;;-4.17;85.04
706;BME280;21234;48.690;9.016;2023-02-10T02:56:13;97949.75;;;-4.19;85.27
706;BME280;21234;48.690;9.016;2023-02-10T02:58:50;97957.81;;;-4.20;84.61
706;BME280;21234;48.690;9.016;2023-02-10T03:01:21;97953.63;;;-4.23;84.75
706;BME280;21234;48.690;9.016;2023-02-10T03:03:53;97949.34;;;-4.36;84.71
706;BME280;21234;48.690;9.016;2023-02-10T03:06:20;97945.63;;;-4.34;86.12
706;BME280;21234;48.690;9.016;2023-02-10T03:08:47;97940.69;;;-4.16;85.14
706;BME280;21234;48.690;9.016;2023-02-10T03:11:14;97942.72;;;-4.20;85.47
706;BME280;21234;48.690;9.016;2023-02-10T03:13:41;97942.25;;;-4.25;85.43
706;BME280;21234;48.690;9.016;2023-02-10T03:16:08;97950.19;;;-4.36;85.69
706;BME280;21234;48.690;9.016;2023-02-10T03:18:35;97954.78;;;-4.38;84.67
706;BME280;21234;48.690;9.016;2023-02-10T03:21:03;97951.53;;;-4.30;85.32
706;BME280;21234;48.690;9.016;2023-02-10T03:23:30;97952.66;;;-4.11;84.79
706;BME280;21234;48.690;9.016;2023-02-10T03:25:57;97952.41;;;-4.08;84.23
706;BME280;21234;48.690;9.016;2023-02-10T03:28:24;97945.75;;;-4.13;85.27
706;BME280;21234;48.690;9.016;2023-02-10T03:30:51;97936.69;;;-4.22;85.96
706;BME280;21234;48.690;9.016;2023-02-10T03:33:19;97944.41;;;-4.19;85.82
706;BME280;21234;48.690;9.016;2023-02-10T03:35:46;97942.00;;;-4.22;85.58
706;BME280;21234;48.690;9.016;2023-02-10T03:38:14;97938.38;;;-4.21;85.24
706;BME280;21234;48.690;9.016;2023-02-10T03:40:42;97949.00;;;-4.32;85.43
706;BME280;21234;48.690;9.016;2023-02-10T03:43:08;97957.78;;;-4.43;85.61
706;BME280;21234;48.690;9.016;2023-02-10T03:45:38;97950.88;;;-4.45;86.50
706;BME280;21234;48.690;9.016;2023-02-10T03:48:04;97960.69;;;-4.34;86.14
706;BME280;21234;48.690;9.016;2023-02-10T03:50:31;97953.78;;;-4.48;86.09
706;BME280;21234;48.690;9.016;2023-02-10T03:52:58;97969.81;;;-4.50;85.75
706;BME280;21234;48.690;9.016;2023-02-10T03:55:26;97962.00;;;-4.40;85.12
706;BME280;21234;48.690;9.016;2023-02-10T03:57:52;97971.59;;;-4.61;85.72
706;BME280;21234;48.690;9.016;2023-02-10T04:00:19;97968.22;;;-4.63;85.80
706;BME280;21234;48.690;9.016;2023-02-10T04:02:46;97962.28;;;-4.67;85.51
706;BME280;21234;48.690;9.016;2023-02-10T04:05:13;97970.81;;;-4.75;86.37
706;BME280;21234;48.690;9.016;2023-02-10T04:07:40;97971.66;;;-4.74;87.11
706;BME280;21234;48.690;9.016;2023-02-10T04:10:07;97981.31;;;-4.73;86.01
706;BME280;21234;48.690;9.016;2023-02-10T04:12:35;97967.66;;;-4.80;87.30
706;BME280;21234;48.690;9.016;2023-02-10T04:15:02;97973.69;;;-4.78;87.58
706;BME280;21234;48.690;9.016;2023-02-10T04:17:29;97968.78;;;-4.71;87.27
706;BME280;21234;48.690;9.016;2023-02-10T04:19:55;97966.19;;;-4.60;86.99
706;BME280;21234;48.690;9.016;2023-02-10T04:22:22;97966.41;;;-4.63;87.30
706;BME280;21234;48.690;9.016;2023-02-10T04:24:49;97964.53;;;-4.74;87.21
706;BME280;21234;48.690;9.016;2023-02-10T04:27:16;97967.88;;;-4.59;86.90
706;BME280;21234;48.690;9.016;2023-02-10T04:29:44;97961.38;;;-4.44;86.61
706;BME280;21234;48.690;9.016;2023-02-10T04:32:10;97960.25;;;-4.52;87.21
706;BME280;21234;48.690;9.016;2023-02-10T04:34:37;97970.63;;;-4.60;87.27
706;BME280;21234;48.690;9.016;2023-02-10T04:37:04;97964.53;;;-4.74;87.79
706;BME280;21234;48.690;9.016;2023-02-10T04:39:31;97964.59;;;-4.62;86.81
706;BME280;21234;48.690;9.016;2023-02-10T04:41:58;97968.50;;;-4.55;86.73
706;BME280;21234;48.690;9.016;2023-02-10T04:44:24;97975.44;;;-4.65;86.62
706;BME280;21234;48.690;9.016;2023-02-10T04:46:53;97978.78;;;-4.75;86.48
706;BME280;21234;48.690;9.016;2023-02-10T04:49:19;97967.41;;;-4.77;86.61
706;BME280;21234;48.690;9.016;2023-02-10T04:51:46;97983.75;;;-4.70;86.93
706;BME280;21234;48.690;9.016;2023-02-10T04:54:14;97976.78;;;-4.60;86.35
706;BME280;21234;48.690;9.016;2023-02-10T04:56:40;97980.66;;;-4.53;86.91
706;BME280;21234;48.690;9.016;2023-02-10T04:59:07;97975.94;;;-4.60;86.48
706;BME280;21234;48.690;9.016;2023-02-10T05:01:34;97976.28;;;-4.65;86.98
706;BME280;21234;48.690;9.016;2023-02-10T05:04:02;97973.06;;;-4.57;85.89
706;BME280;21234;48.690;9.016;2023-02-10T05:06:29;97981.63;;;-4.54;85.91
706;BME280;21234;48.690;9.016;2023-02-10T05:08:56;97985.31;;;-4.67;86.51
706;BME280;21234;48.690;9.016;2023-02-10T05:11:23;97977.03;;;-4.52;86.35
706;BME280;21234;48.690;9.016;2023-02-10T05:13:49;97983.94;;;-4.49;85.50
706;BME280;21234;48.690;9.016;2023-02-10T05:16:17;97994.09;;;-4.43;85.24
706;BME280;21234;48.690;9.016;2023-02-10T05:18:43;97994.63;;;-4.62;86.52
706;BME280;21234;48.690;9.016;2023-02-10T05:21:12;97999.34;;;-4.54;86.63
706;BME280;21234;48.690;9.016;2023-02-10T05:23:40;97994.31;;;-4.46;86.20
706;BME280;21234;48.690;9.016;2023-02-10T05:26:07;98000.06;;;-4.63;87.00
706;BME280;21234;48.690;9.016;2023-02-10T05:28:34;98003.22;;;-4.58;87.56
706;BME280;21234;48.690;9.016;2023-02-10T05:31:01;98003.94;;;-4.56;86.88
706;BME280;21234;48.690;9.016;2023-02-10T05:33:29;97996.09;;;-4.58;86.69
706;BME280;21234;48.690;9.016;2023-02-10T05:35:55;98003.94;;;-4.56;87.20
706;BME280;21234;48.690;9.016;2023-02-10T05:38:23;98006.31;;;-4.64;86.60
706;BME280;21234;48.690;9.016;2023-02-10T05:40:51;98011.34;;;-4.72;86.66
706;BME280;21234;48.690;9.016;2023-02-10T05:43:18;98003.84;;;-4.55;87.18
706;BME280;21234;48.690;9.016;2023-02-10T05:45:45;98007.16;;;-4.64;87.16
706;BME280;21234;48.690;9.016;2023-02-10T05:48:12;98012.88;;;-4.57;86.98
706;BME280;21234;48.690;9.016;2023-02-10T05:50:39;98011.91;;;-4.56;86.58
706;BME280;21234;48.690;9.016;2023-02-10T05:53:07;98015.03;;;-4.62;86.57
706;BME280;21234;48.690;9.016;2023-02-10T05:55:36;98011.84;;;-4.67;86.59
706;BME280;21234;48.690;9.016;2023-02-10T05:58:02;98015.91;;;-4.75;87.00
706;BME280;21234;48.690;9.016;2023-02-10T06:00:29;98014.50;;;-4.67;86.41
706;BME280;21234;48.690;9.016;2023-02-10T06:02:56;98020.94;;;-4.83;87.87
706;BME280;21234;48.690;9.016;2023-02-10T06:05:23;98023.25;;;-4.78;87.39
706;BME280;21234;48.690;9.016;2023-02-10T06:07:50;98027.34;;;-4.61;87.10
706;BME280;21234;48.690;9.016;2023-02-10T06:10:17;98025.53;;;-4.61;87.35
706;BME280;21234;48.690;9.016;2023-02-10T06:12:45;98024.91;;;-4.64;86.58
706;BME280;21234;48.690;9.016;2023-02-10T06:15:11;98029.91;;;-4.72;87.25
706;BME280;21234;48.690;9.016;2023-02-10T06:17:38;98044.69;;;-4.81;87.66
706;BME280;21234;48.690;9.016;2023-02-10T06:20:05;98044.06;;;-4.85;87.54
706;BME280;21234;48.690;9.016;2023-02-10T06:22:32;98046.28;;;-4.79;87.50
706;BME280;21234;48.690;9.016;2023-02-10T06:24:59;98043.16;;;-4.96;87.36
706;BME280;21234;48.690;9.016;2023-02-10T06:27:26;98047.09;;;-4.89;87.25
706;BME280;21234;48.690;9.016;2023-02-10T06:29:54;98039.47;;;-4.94;88.13
706;BME280;21234;48.690;9.016;2023-02-10T06:32:21;98047.53;;;-4.95;87.66
706;BME280;21234;48.690;9.016;2023-02-10T06:34:47;98049.25;;;-4.83;87.64
706;BME280;21234;48.690;9.016;2023-02-10T06:37:14;98048.94;;;-4.79;87.84
706;BME280;21234;48.690;9.016;2023-02-10T06:39:41;98051.81;;;-4.82;88.23
706;BME280;21234;48.690;9.016;2023-02-10T06:42:07;98055.19;;;-4.80;88.56
706;BME280;21234;48.690;9.016;2023-02-10T06:44:34;98049.03;;;-4.80;88.59
706;BME280;21234;48.690;9.016;2023-02-10T06:47:02;98058.28;;;-4.86;88.21
706;BME280;21234;48.690;9.016;2023-02-10T06:49:29;98061.19;;;-4.89;88.52
706;BME280;21234;48.690;9.016;2023-02-10T06:51:56;98064.84;;;-4.79;88.18
706;BME280;21234;48.690;9.016;2023-02-10T06:54:23;98061.75;;;-4.72;87.49
706;BME280;21234;48.690;9.016;2023-02-10T06:56:49;98072.41;;;-4.85;87.92
706;BME280;21234;48.690;9.016;2023-02-10T06:59:16;98076.25;;;-4.89;88.35
706;BME280;21234;48.690;9.016;2023-02-10T07:01:43;98077.06;;;-4.76;87.84
706;BME280;21234;48.690;9.016;2023-02-10T07:04:11;98083.94;;;-4.74;88.06
706;BME280;21234;48.690;9.016;2023-02-10T07:06:38;98085.50;;;-4.58;87.98
706;BME280;21234;48.690;9.016;2023-02-10T07:09:05;98093.06;;;-4.41;86.51
706;BME280;21234;48.690;9.016;2023-02-10T07:11:33;98086.91;;;-4.42;85.91
706;BME280;21234;48.690;9.016;2023-02-10T07:14:00;98088.94;;;-4.45;85.18
706;BME280;21234;48.690;9.016;2023-02-10T07:16:27;98079.81;;;-4.54;85.28
706;BME280;21234;48.690;9.016;2023-02-10T07:18:55;98081.53;;;-4.53;85.21
706;BME280;21234;48.690;9.016;2023-02-10T07:21:23;98080.34;;;-4.49;85.37
706;BME280;21234;48.690;9.016;2023-02-10T07:23:50;98081.75;;;-4.32;85.56
706;BME280;21234;48.690;9.016;2023-02-10T07:26:16;98078.84;;;-4.05;85.22
706;BME280;21234;48.690;9.016;2023-02-10T07:28:44;98079.41;;;-3.78;83.97
706;BME280;21234;48.690;9.016;2023-02-10T07:31:11;98085.47;;;-3.53;82.76
706;BME280;21234;48.690;9.016;2023-02-10T07:33:37;98081.31;;;-3.00;80.88
706;BME280;21234;48.690;9.016;2023-02-10T07:36:05;98085.50;;;-2.86;79.84
706;BME280;21234;48.690;9.016;2023-02-10T07:38:34;98080.91;;;-2.84;79.74
706;BME280;21234;48.690;9.016;2023-02-10T07:41:01;98087.94;;;-3.06;81.33
706;BME280;21234;48.690;9.016;2023-02-10T07:43:28;98088.31;;;-2.99;80.95
706;BME280;21234;48.690;9.016;2023-02-10T07:45:55;98090.00;;;-2.98;80.05
706;BME280;21234;48.690;9.016;2023-02-10T07:48:21;98097.34;;;-2.68;80.48
706;BME280;21234;48.690;9.016;2023-02-10T07:50:48;98094.09;;;-2.72;80.14
706;BME280;21234;48.690;9.016;2023-02-10T07:53:16;98094.81;;;-2.81;80.08
706;BME280;21234;48.690;9.016;2023-02-10T07:55:44;98093.41;;;-2.96;81.54
706;BME280;21234;48.690;9.016;2023-02-10T07:58:11;98096.91;;;-2.95;81.88
706;BME280;21234;48.690;9.016;2023-02-10T08:00:38;98091.72;;;-2.97;82.33
706;BME280;21234;48.690;9.016;2023-02-10T08:03:04;98088.44;;;-3.00;83.01
706;BME280;21234;48.690;9.016;2023-02-10T08:05:31;98090.34;;;-2.80;83.58
706;BME280;21234;48.690;9.016;2023-02-10T08:07:58;98089.56;;;-2.49;82.41
706;BME280;21234;48.690;9.016;2023-02-10T08:10:24;98091.91;;;-2.23;81.76
706;BME280;21234;48.690;9.016;2023-02-10T08:12:52;98096.09;;;-2.10;81.75
706;BME280;21234;48.690;9.016;2023-02-10T08:15:19;98092.00;;;-2.14;81.22
706;BME280;21234;48.690;9.016;2023-02-10T08:17:48;98095.25;;;-2.10;80.18
706;BME280;21234;48.690;9.016;2023-02-10T08:20:14;98091.63;;;-1.88;79.13
706;BME280;21234;48.690;9.016;2023-02-10T08:22:41;98093.16;;;-1.54;77.03
706;BME280;21234;48.690;9.016;2023-02-10T08:25:08;98101.75;;;-1.50;75.67
706;BME280;21234;48.690;9.016;2023-02-10T08:27:35;98102.31;;;-0.95;74.61
706;BME280;21234;48.690;9.016;2023-02-10T08:30:03;98101.69;;;-0.19;72.66
706;BME280;21234;48.690;9.016;2023-02-10T08:32:31;98104.69;;;0.17;68.62
706;BME280;21234;48.690;9.016;2023-02-10T08:34:57;98102.16;;;-0.04;70.09
706;BME280;21234;48.690;9.016;2023-02-10T08:37:25;98107.78;;;-0.07;70.27
706;BME280;21234;48.690;9.016;2023-02-10T08:39:52;98109.13;;;-0.32;70.23
706;BME280;21234;48.690;9.016;2023-02-10T08:42:18;98119.53;;;-0.79;72.93
706;BME280;21234;48.690;9.016;2023-02-10T08:44:45;98101.78;;;-1.20;76.03
706;BME280;21234;48.690;9.016;2023-02-10T08:47:13;98114.28;;;-1.20;76.92
706;BME280;21234;48.690;9.016;2023-02-10T08:49:41;98108.91;;;-1.30;78.20
706;BME280;21234;48.690;9.016;2023-02-10T08:52:08;98106.19;;;-1.09;77.57
706;BME280;21234;48.690;9.016;2023-02-10T08:54:35;98114.22;;;-1.09;77.68
706;BME280;21234;48.690;9.016;2023-02-10T08:57:02;98109.06;;;-1.01;77.26
706;BME280;21234;48.690;9.016;2023-02-10T08:59:29;98101.66;;;-0.88;75.98
706;BME280;21234;48.690;9.016;2023-02-10T09:01:56;98108.91;;;-0.69;76.13
706;BME280;21234;48.690;9.016;2023-02-10T09:04:24;98111.41;;;-0.77;72.97
706;BME280;21234;48.690;9.016;2023-02-10T09:06:51;98113.09;;;-0.76;72.05
706;BME280;21234;48.690;9.016;2023-02-10T09:09:19;98111.56;;;-0.69;71.51
706;BME280;21234;48.690;9.016;2023-02-10T09:11:50;98119.47;;;-0.68;72.18
706;BME280;21234;48.690;9.016;2023-02-10T09:14:17;98112.03;;;-0.54;71.17
706;BME280;21234;48.690;9.016;2023-02-10T09:16:44;98107.66;;;-0.55;70.94
706;BME280;21234;48.690;9.016;2023-02-10T09:19:10;98109.09;;;-0.51;71.58
706;BME280;21234;48.690;9.016;2023-02-10T09:21:39;98107.03;;;-0.28;71.01
706;BME280;21234;48.690;9.016;2023-02-10T09:24:06;98099.03;;;-0.19;69.84
706;BME280;21234;48.690;9.016;2023-02-10T09:26:33;98106.38;;;-0.02;69.64
706;BME280;21234;48.690;9.016;2023-02-10T09:28:59;98098.78;;;-0.06;69.85
706;BME280;21234;48.690;9.016;2023-02-10T09:31:26;98102.72;;;0.09;69.10
706;BME280;21234;48.690;9.016;2023-02-10T09:33:53;98107.94;;;0.20;68.90
706;BME280;21234;48.690;9.016;2023-02-10T09:36:20;98108.19;;;0.46;69.00
706;BME280;21234;48.690;9.016;2023-02-10T09:38:48;98107.16;;;0.76;68.85
706;BME280;21234;48.690;9.016;2023-02-10T09:41:21;98109.59;;;0.50;66.92
706;BME280;21234;48.690;9.016;2023-02-10T09:44:03;98119.16;;;0.62;67.56
706;BME280;21234;48.690;9.016;2023-02-10T09:46:45;98110.38;;;0.89;66.66
706;BME280;21234;48.690;9.016;2023-02-10T09:49:30;98115.50;;;1.20;67.54
706;BME280;21234;48.690;9.016;2023-02-10T09:52:07;98113.44;;;1.31;66.48
706;BME280;21234;48.690;9.016;2023-02-10T09:54:39;98110.59;;;1.43;66.31
706;BME280;21234;48.690;9.016;2023-02-10T09:57:11;98113.97;;;1.45;66.52
706;BME280;21234;48.690;9.016;2023-02-10T09:59:40;98118.34;;;1.46;63.64
706;BME280;21234;48.690;9.016;2023-02-10T10:02:12;98115.91;;;1.52;63.39
706;BME280;21234;48.690;9.016;2023-02-10T10:04:42;98123.59;;;1.65;62.97
706;BME280;21234;48.690;9.016;2023-02-10T10:07:19;98121.59;;;1.67;61.84
706;BME280;21234;48.690;9.016;2023-02-10T10:09:58;98122.88;;;1.63;61.80
706;BME280;21234;48.690;9.016;2023-02-10T10:12:27;98115.78;;;1.72;62.02
706;BME280;21234;48.690;9.016;2023-02-10T10:14:54;98111.88;;;1.93;61.83
706;BME280;21234;48.690;9.016;2023-02-10T10:17:52;98106.06;;;2.16;61.78
706;BME280;21234;48.690;9.016;2023-02-10T10:20:39;98103.47;;;2.24;61.39
706;BME280;21234;48.690;9.016;2023-02-10T10:23:24;98108.03;;;2.31;59.97
706;BME280;21234;48.690;9.016;2023-02-10T10:26:00;98106.28;;;2.05;57.78
706;BME280;21234;48.690;9.016;2023-02-10T10:28:39;98112.13;;;2.18;58.92
706;BME280;21234;48.690;9.016;2023-02-10T10:31:13;98113.78;;;2.36;58.90
706;BME280;21234;48.690;9.016;2023-02-10T10:33:44;98110.72;;;2.49;58.87
706;BME280;21234;48.690;9.016;2023-02-10T10:36:16;98110.41;;;2.52;58.81
706;BME280;21234;48.690;9.016;2023-02-10T10:38:47;98106.13;;;2.59;57.65
706;BME280;21234;48.690;9.016;2023-02-10T10:41:17;98107.31;;;2.65;56.35
706;BME280;21234;48.690;9.016;2023-02-10T10:43:47;98097.47;;;2.74;57.07
706;BME280;21234;48.690;9.016;2023-02-10T10:46:19;98107.19;;;2.92;54.88
706;BME280;21234;48.690;9.016;2023-02-10T10:48:47;98105.81;;;3.14;54.88
706;BME280;21234;48.690;9.016;2023-02-10T10:51:14;98098.44;;;3.16;53.05
706;BME280;21234;48.690;9.016;2023-02-10T10:53:43;98108.91;;;3.01;54.59
706;BME280;21234;48.690;9.016;2023-02-10T10:56:17;98096.97;;;3.22;53.86
706;BME280;21234;48.690;9.016;2023-02-10T10:58:48;98098.81;;;3.29;53.27
706;BME280;21234;48.690;9.016;2023-02-10T11:01:17;98099.97;;;3.19;50.95
706;BME280;21234;48.690;9.016;2023-02-10T11:03:44;98092.94;;;2.92;50.92
706;BME280;21234;48.690;9.016;2023-02-10T11:06:12;98089.75;;;2.96;50.53
706;BME280;21234;48.690;9.016;2023-02-10T11:08:42;98091.16;;;3.09;52.07
706;BME280;21234;48.690;9.016;2023-02-10T11:11:11;98078.38;;;3.36;53.02
706;BME280;21234;48.690;9.016;2023-02-10T11:13:49;98086.06;;;3.31;50.13
706;BME280;21234;48.690;9.016;2023-02-10T11:16:17;98077.22;;;3.39;51.20
706;BME280;21234;48.690;9.016;2023-02-10T11:18:52;98085.53;;;3.54;50.64
706;BME280;21234;48.690;9.016;2023-02-10T11:21:19;98078.16;;;3.64;51.53
706;BME280;21234;48.690;9.016;2023-02-10T11:23:48;98081.94;;;3.45;49.28
706;BME280;21234;48.690;9.016;2023-02-10T11:26:20;98079.22;;;3.37;48.72
706;BME280;21234;48.690;9.016;2023-02-10T11:28:48;98081.53;;;3.32;48.65
706;BME280;21234;48.690;9.016;2023-02-10T11:31:30;98078.91;;;3.40;50.67
706;BME280;21234;48.690;9.016;2023-02-10T11:34:02;98082.75;;;3.37;48.75
706;BME280;21234;48.690;9.016;2023-02-10T11:36:33;98086.53;;;3.53;50.36
706;BME280;21234;48.690;9.016;2023-02-10T11:39:04;98078.13;;;3.56;48.56
706;BME280;21234;48.690;9.016;2023-02-10T11:41:32;98080.50;;;3.67;48.14
706;BME280;21234;48.690;9.016;2023-02-10T11:44:01;98081.22;;;3.77;48.43
706;BME280;21234;48.690;9.016;2023-02-10T11:46:30;98078.38;;;3.79;49.18
706;BME280;21234;48.690;9.016;2023-02-10T11:48:59;98074.03;;;3.86;49.73
706;BME280;21234;48.690;9.016;2023-02-10T11:51:27;98078.56;;;3.93;48.94
706;BME280;21234;48.690;9.016;2023-02-10T11:53:55;98077.69;;;3.77;47.61
706;BME280;21234;48.690;9.016;2023-02-10T11:56:24;98075.88;;;3.85;47.47
706;BME280;21234;48.690;9.016;2023-02-10T11:59:16;98078.41;;;3.95;47.73
706;BME280;21234;48.690;9.016;2023-02-10T12:01:51;98072.34;;;3.85;47.98
706;BME280;21234;48.690;9.016;2023-02-10T12:04:34;98073.03;;;3.87;46.93
706;BME280;21234;48.690;9.016;2023-02-10T12:07:08;98064.63;;;3.90;47.23
706;BME280;21234;48.690;9.016;2023-02-10T12:09:43;98070.69;;;4.00;46.23
706;BME280;21234;48.690;9.016;2023-02-10T12:12:17;98064.78;;;3.96;47.67
706;BME280;21234;48.690;9.016;2023-02-10T12:14:56;98054.72;;;4.15;47.43
706;BME280;21234;48.690;9.016;2023-02-10T12:17:27;98063.13;;;4.28;45.78
706;BME280;21234;48.690;9.016;2023-02-10T12:20:07;98062.00;;;4.22;45.18
706;BME280;21234;48.690;9.016;2023-02-10T12:22:57;98065.34;;;4.32;47.05
706;BME280;21234;48.690;9.016;2023-02-10T12:25:26;98059.28;;;4.30;45.58
706;BME280;21234;48.690;9.016;2023-02-10T12:28:02;98051.19;;;4.30;45.19
706;BME280;21234;48.690;9.016;2023-02-10T12:30:41;98051.19;;;4.30;46.74
706;BME280;21234;48.690;9.016;2023-02-10T12:33:38;98051.03;;;4.40;46.66
706;BME280;21234;48.690;9.016;2023-02-10T12:36:15;98042.97;;;4.48;47.27
706;BME280;21234;48.690;9.016;2023-02-10T12:38:57;98040.09;;;4.58;45.38
706;BME280;21234;48.690;9.016;2023-02-10T12:41:36;98041.47;;;4.54;44.09
706;BME280;21234;48.690;9.016;2023-02-10T12:44:15;98037.22;;;4.76;43.13
706;BME280;21234;48.690;9.016;2023-02-10T12:46:58;98021.72;;;4.78;45.28
706;BME280;21234;48.690;9.016;2023-02-10T12:49:39;98027.28;;;4.76;42.43
706;BME280;21234;48.690;9.016;2023-02-10T12:52:11;98024.25;;;4.87;42.30
706;BME280;21234;48.690;9.016;2023-02-10T12:54:46;98026.88;;;5.03;42.87
706;BME280;21234;48.690;9.016;2023-02-10T12:57:20;98027.28;;;4.84;42.16
706;BME280;21234;48.690;9.016;2023-02-10T12:59:54;98025.59;;;4.75;41.31
706;BME280;21234;48.690;9.016;2023-02-10T13:02:27;98018.00;;;4.87;42.35
706;BME280;21234;48.690;9.016;2023-02-10T13:05:02;98016.50;;;4.84;42.45
706;BME280;21234;48.690;9.016;2023-02-10T13:07:36;98011.56;;;4.96;42.91
706;BME280;21234;48.690;9.016;2023-02-10T13:10:15;98013.22;;;5.05;41.83
706;BME280;21234;48.690;9.016;2023-02-10T13:12:45;98008.50;;;5.07;40.50
706;BME280;21234;48.690;9.016;2023-02-10T13:15:16;98010.66;;;5.20;40.52
706;BME280;21234;48.690;9.016;2023-02-10T13:17:47;98012.09;;;5.38;42.16
706;BME280;21234;48.690;9.016;2023-02-10T13:20:33;98010.72;;;5.43;42.83
706;BME280;21234;48.690;9.016;2023-02-10T13:23:13;98008.03;;;5.43;42.51
706;BME280;21234;48.690;9.016;2023-02-10T13:25:53;98010.31;;;5.54;39.77
706;BME280;21234;48.690;9.016;2023-02-10T13:28:28;98014.41;;;5.50;41.81
706;BME280;21234;48.690;9.016;2023-02-10T13:31:17;98021.44;;;5.59;39.27
706;BME280;21234;48.690;9.016;2023-02-10T13:33:53;98020.81;;;5.49;38.99
706;BME280;21234;48.690;9.016;2023-02-10T13:36:27;98009.50;;;5.84;40.98
706;BME280;21234;48.690;9.016;2023-02-10T13:39:00;98015.09;;;5.83;41.72